.
WxDataArchive / Data Records for 2015-07-13
2015-07-12 July 2015 2015-07-14

Data Records for Monday, 13 July 2015

Time	Temp	Chill	HIndex	Humid	Dewpt	 Wind 	HiWind	WindDir	Rain 	Barom
-----	----	-----	------	-----	-----	------	------	-------	-----	-----
00:00	63.9	63.9	63.9	93	61.8	0	0	---	0.00	29.923 
00:05	63.7	63.7	63.7	93	61.6	0	0	---	0.00	29.923 
00:10	63.5	63.5	63.5	93	61.4	0	0	---	0.00	29.923 
00:15	63.5	63.5	63.5	93	61.4	0	0	---	0.00	29.927 
00:20	63.5	63.5	63.5	93	61.4	0	0	---	0.00	29.927 
00:25	63.5	63.5	63.5	94	61.7	0	0	---	0.00	29.927 
00:30	63.5	63.5	63.5	94	61.7	0	0	---	0.00	29.930 
00:35	63.5	63.5	63.5	94	61.7	0	0	---	0.00	29.930 
00:40	63.4	63.4	63.4	94	61.6	0	0	---	0.00	29.930 
00:45	63.4	63.4	63.4	94	61.6	0	0	---	0.00	29.928 
00:50	63.2	63.2	63.2	94	61.4	0	0	---	0.00	29.928 
00:55	63.1	63.1	63.1	94	61.3	0	0	---	0.00	29.928 
01:00	62.9	62.9	62.9	94	61.1	0	0	---	0.00	29.913 
01:05	62.7	62.7	62.7	94	60.9	0	0	---	0.00	29.913 
01:10	62.6	62.6	62.6	94	60.8	0	0	---	0.00	29.913 
01:15	62.4	62.4	62.4	94	60.6	0	0	---	0.00	29.904 
01:20	62.4	62.4	62.4	94	60.6	0	0	---	0.00	29.904 
01:25	62.3	62.3	62.3	94	60.5	0	0	---	0.00	29.904 
01:30	62.3	62.3	62.3	94	60.5	0	0	---	0.00	29.897 
01:35	62.1	62.1	62.1	94	60.3	0	0	---	0.00	29.897 
01:40	62.0	62.0	62.0	94	60.2	0	0	---	0.00	29.897 
01:45	62.0	62.0	62.0	94	60.2	0	0	---	0.00	29.899 
01:50	61.8	61.8	61.8	94	60.1	0	0	---	0.00	29.899 
01:55	61.8	61.8	61.8	94	60.1	0	0	---	0.00	29.899 
02:00	61.8	61.8	61.8	94	60.1	0	0	---	0.00	29.898 
02:05	61.6	61.6	61.6	94	59.9	0	0	---	0.00	29.898 
02:10	61.5	61.5	61.5	94	59.8	0	0	---	0.00	29.898 
02:15	61.3	61.3	61.3	95	59.9	0	0	---	0.00	29.887 
02:20	61.3	61.3	61.3	95	59.9	0	0	---	0.00	29.887 
02:25	61.3	61.3	61.3	95	59.9	0	0	---	0.00	29.887 
02:30	61.2	61.2	61.2	95	59.8	0	0	---	0.00	29.888 
02:35	61.2	61.2	61.2	95	59.8	0	0	---	0.00	29.888 
02:40	61.2	61.2	61.2	95	59.8	0	0	---	0.00	29.888 
02:45	61.0	61.0	61.0	95	59.6	0	0	---	0.00	29.886 
02:50	61.0	61.0	61.0	95	59.6	0	0	---	0.00	29.886 
03:00	60.9	60.9	60.9	95	59.5	0	0	---	0.00	29.881 
03:05	60.9	60.9	60.9	95	59.5	0	0	---	0.00	29.881 
03:10	60.9	60.9	60.9	95	59.5	0	0	---	0.00	29.881 
03:15	60.9	60.9	60.9	95	59.5	0	0	---	0.00	29.876 
03:20	60.9	60.9	60.9	95	59.5	0	0	---	0.00	29.876 
03:25	60.9	60.9	60.9	95	59.5	0	0	---	0.00	29.876 
03:30	60.7	60.7	60.7	95	59.3	0	0	---	0.00	29.875 
03:35	60.7	60.7	60.7	95	59.3	0	0	---	0.00	29.875 
03:40	60.7	60.7	60.7	95	59.3	0	0	---	0.00	29.875 
03:45	60.5	60.5	60.5	95	59.1	0	0	---	0.00	29.871 
03:50	60.5	60.5	60.5	95	59.1	0	0	---	0.00	29.871 
03:55	60.5	60.5	60.5	95	59.1	0	0	---	0.00	29.871 
04:00	60.5	60.5	60.5	95	59.1	0	0	---	0.00	29.868 
04:05	60.5	60.5	60.5	95	59.1	0	0	---	0.00	29.868 
04:10	60.5	60.5	60.5	95	59.1	0	0	---	0.00	29.868 
04:15	60.5	60.5	60.5	95	59.1	0	0	---	0.00	29.865 
04:20	60.5	60.5	60.5	95	59.1	0	0	---	0.00	29.865 
04:25	60.5	60.5	60.5	95	59.1	0	0	---	0.00	29.865 
04:30	60.5	60.5	60.5	95	59.1	0	0	---	0.00	29.852 
04:35	60.4	60.4	60.4	96	59.3	0	0	---	0.00	29.852 
04:40	60.4	60.4	60.4	96	59.3	0	0	---	0.00	29.852 
04:45	60.2	60.2	60.2	96	59.1	0	0	---	0.00	29.845 
04:50	60.2	60.2	60.2	96	59.1	0	0	---	0.00	29.845 
04:55	60.4	60.4	60.4	96	59.3	0	0	---	0.00	29.845 
05:00	60.4	60.4	60.4	96	59.3	0	0	---	0.00	29.838 
05:05	60.4	60.4	60.4	96	59.3	0	0	---	0.00	29.838 
05:10	60.4	60.4	60.4	96	59.3	0	0	---	0.00	29.838 
05:15	60.5	60.5	60.5	96	59.4	0	0	---	0.00	29.837 
05:20	60.5	60.5	60.5	96	59.4	0	0	---	0.00	29.837 
05:25	60.5	60.5	60.5	96	59.4	0	0	---	0.00	29.837 
05:30	60.5	60.5	60.5	96	59.4	0	0	---	0.00	29.834 
05:35	60.7	60.7	60.7	96	59.6	0	0	---	0.00	29.834 
05:40	60.7	60.7	60.7	96	59.6	0	0	---	0.00	29.834 
05:45	60.7	60.7	60.7	96	59.6	0	0	---	0.00	29.834 
05:50	60.9	60.9	60.9	96	59.7	0	0	---	0.00	29.834 
05:55	60.9	60.9	60.9	96	59.7	0	0	---	0.00	29.834 
06:00	61.0	61.0	61.0	96	59.8	0	0	---	0.00	29.833 
06:05	61.0	61.0	61.0	96	59.8	0	0	---	0.00	29.833 
06:10	61.2	61.2	61.2	96	60.0	0	0	---	0.00	29.833 
06:15	61.3	61.3	61.3	96	60.1	0	0	---	0.00	29.830 
06:20	61.6	61.6	61.6	96	60.4	0	0	---	0.00	29.830 
06:25	61.8	61.8	61.8	96	60.6	0	0	---	0.00	29.830 
06:30	62.0	62.0	62.0	96	60.8	0	0	---	0.00	29.836 
06:35	62.1	62.1	62.1	96	60.9	0	0	---	0.00	29.836 
06:40	62.4	62.4	62.4	96	61.2	0	0	---	0.00	29.836 
06:45	62.7	62.7	62.7	96	61.5	0	0	---	0.00	29.840 
06:50	63.1	63.1	63.1	97	62.2	0	0	---	0.00	29.840 
06:55	63.2	63.2	63.2	96	62.0	0	0	---	0.00	29.840 
07:00	63.4	63.4	63.4	96	62.2	0	0	---	0.00	29.834 
07:05	63.7	63.7	63.7	96	62.5	0	0	---	0.00	29.834 
07:10	63.9	63.9	63.9	96	62.7	0	1	112	0.00	29.834 
07:15	64.0	64.0	64.0	96	62.8	0	0	---	0.00	29.832 
07:20	64.2	64.2	64.2	96	63.0	0	0	---	0.00	29.832 
07:25	64.2	64.2	64.2	96	63.0	0	0	---	0.00	29.832 
07:30	64.3	64.3	64.3	96	63.1	0	1	112	0.00	29.823 
07:35	64.5	64.5	64.5	96	63.3	0	1	112	0.00	29.823 
07:40	64.5	64.5	64.5	96	63.3	0	1	112	0.00	29.823 
07:45	64.5	64.5	64.5	96	63.3	0	1	112	0.00	29.805 
07:50	64.7	64.7	64.7	96	63.5	0	2	112	0.00	29.805 
07:55	64.7	64.7	64.7	96	63.5	0	0	---	0.00	29.805 
08:00	64.7	64.7	64.7	96	63.5	0	1	112	0.00	29.801 
08:05	64.7	64.7	64.7	96	63.5	1	4	112	0.00	29.801 
08:10	64.7	64.7	64.7	96	63.5	0	2	202	0.00	29.801 
08:15	64.8	64.8	64.8	96	63.6	0	1	180	0.00	29.799 
08:20	64.8	64.8	64.8	96	63.6	0	2	158	0.00	29.799 
08:25	65.0	65.0	65.0	96	63.8	0	1	158	0.00	29.799 
08:30	65.2	65.2	65.2	96	64.0	0	2	158	0.00	29.802 
08:35	65.2	65.2	65.2	96	64.0	0	1	158	0.00	29.802 
08:40	65.3	65.3	65.3	96	64.1	0	1	158	0.00	29.802 
08:45	65.3	65.3	65.3	96	64.1	0	3	158	0.00	29.810 
08:50	65.3	65.3	65.3	96	64.1	0	2	45	0.00	29.810 
08:55	65.3	65.3	65.3	96	64.1	0	2	45	0.00	29.810 
09:00	65.5	65.5	65.5	96	64.3	0	1	45	0.00	29.816 
09:05	65.5	65.5	65.5	96	64.3	0	1	45	0.00	29.816 
09:10	65.5	65.5	65.5	96	64.3	0	1	45	0.00	29.816 
09:15	65.5	65.5	65.5	95	64.0	0	1	45	0.00	29.817 
09:20	65.5	65.5	65.5	95	64.0	0	1	45	0.00	29.817 
09:25	65.3	65.3	65.3	95	63.8	0	1	45	0.00	29.817 
09:30	65.3	65.3	65.3	95	63.8	0	1	45	0.00	29.818 
09:35	65.3	65.3	65.3	95	63.8	0	1	45	0.01	29.818 
09:40	65.2	65.2	65.2	95	63.7	0	2	45	0.00	29.818 
09:45	65.2	65.2	65.2	95	63.7	0	2	45	0.00	29.801 
09:50	65.2	65.2	65.2	95	63.7	0	1	45	0.00	29.801 
09:55	65.0	65.0	65.0	95	63.5	0	0	---	0.00	29.801 
10:00	65.0	65.0	65.0	95	63.5	0	2	158	0.00	29.805 
10:05	65.2	65.2	65.2	95	63.7	0	1	158	0.00	29.805 
10:10	65.2	65.2	65.2	95	63.7	0	1	180	0.00	29.805 
10:15	65.2	65.2	65.2	95	63.7	0	0	---	0.01	29.836 
10:20	65.3	65.3	65.3	95	63.8	5	13	315	0.00	29.836 
10:25	64.7	64.7	64.7	94	62.9	7	17	338	0.00	29.836 
10:30	63.5	63.5	63.5	93	61.4	6	13	338	0.04	29.903 
10:35	62.9	62.9	62.9	94	61.1	2	7	292	0.04	29.903 
10:40	62.6	62.6	62.6	94	60.8	0	4	292	0.04	29.903 
10:45	62.6	62.6	62.6	94	60.8	0	1	292	0.04	29.853 
10:50	62.6	62.6	62.6	94	60.8	0	1	292	0.02	29.853 
10:55	62.6	62.6	62.6	94	60.8	0	0	---	0.01	29.853 
11:00	62.6	62.6	62.6	95	61.1	0	0	---	0.00	29.832 
11:05	62.6	62.6	62.6	95	61.1	0	1	292	0.01	29.832 
11:10	62.6	62.6	62.6	95	61.1	0	1	292	0.00	29.832 
11:15	62.6	62.6	62.6	95	61.1	0	2	292	0.00	29.839 
11:20	62.4	62.4	62.4	95	60.9	0	1	292	0.00	29.839 
11:25	62.4	62.4	62.4	95	60.9	0	1	292	0.00	29.839 
11:30	62.4	62.4	62.4	95	60.9	0	1	292	0.02	29.852 
11:35	62.4	62.4	62.4	95	60.9	0	1	292	0.00	29.852 
11:40	62.4	62.4	62.4	95	60.9	0	0	---	0.02	29.852 
11:45	62.4	62.4	62.4	95	60.9	0	0	---	0.01	29.829 
11:50	62.4	62.4	62.4	95	60.9	0	0	---	0.01	29.829 
11:55	62.4	62.4	62.4	95	60.9	0	0	---	0.01	29.829 
12:00	62.4	62.4	62.4	95	60.9	0	0	---	0.01	29.829 
12:05	62.4	62.4	62.4	95	60.9	0	1	292	0.02	29.829 
12:10	62.6	62.6	62.6	95	61.1	0	1	292	0.01	29.829 
12:15	62.6	62.6	62.6	96	61.4	0	1	292	0.01	29.803 
12:20	62.7	62.7	62.7	96	61.5	1	2	292	0.00	29.803 
12:25	62.9	62.9	62.9	96	61.7	1	3	292	0.01	29.803 
12:30	62.9	62.9	62.9	96	61.7	1	3	292	0.01	29.732 
12:35	63.1	63.1	63.1	96	61.9	1	3	292	0.00	29.732 
12:40	63.1	63.1	63.1	96	61.9	1	2	315	0.00	29.732 
12:45	63.2	63.2	63.2	96	62.0	0	3	90	0.00	29.714 
12:50	63.5	63.5	63.5	96	62.3	0	3	90	0.00	29.714 
12:55	63.9	63.9	63.9	96	62.7	1	3	90	0.00	29.714 
13:00	64.2	64.2	64.2	96	63.0	0	2	112	0.00	29.714 
13:05	64.5	64.5	64.5	96	63.3	1	3	68	0.00	29.714 
13:10	65.0	65.0	65.0	96	63.8	0	2	90	0.00	29.714 
13:15	65.5	65.5	65.5	96	64.3	0	3	90	0.00	29.717 
13:20	65.6	65.6	65.6	96	64.4	1	4	90	0.00	29.717 
13:25	66.1	66.1	66.1	96	64.9	0	1	90	0.00	29.717 
13:30	66.4	66.4	66.4	96	65.2	0	2	90	0.00	29.723 
13:35	66.6	66.6	66.6	96	65.4	1	4	90	0.00	29.723 
13:40	66.9	66.9	66.9	96	65.7	0	3	90	0.00	29.723 
13:45	67.1	67.1	67.1	95	65.6	0	3	90	0.00	29.715 
13:50	67.3	67.3	67.3	95	65.8	1	3	90	0.00	29.715 
13:55	67.6	67.6	67.6	95	66.1	0	2	112	0.00	29.715 
14:00	67.9	67.9	67.9	94	66.1	1	3	112	0.00	29.711 
14:05	68.4	68.4	68.4	94	66.6	0	2	112	0.00	29.711 
14:10	68.9	68.9	68.9	93	66.8	0	3	112	0.00	29.711 
14:15	68.9	68.9	68.9	93	66.8	1	3	112	0.00	29.720 
14:20	69.4	69.4	69.4	92	67.0	0	4	112	0.00	29.720 
14:25	70.1	70.1	70.1	92	67.7	0	1	135	0.00	29.720 
14:30	70.4	70.4	70.4	91	67.6	0	3	135	0.00	29.712 
14:35	71.1	71.1	71.1	90	68.0	0	3	135	0.00	29.712 
14:40	71.1	71.1	71.1	87	67.0	1	6	135	0.00	29.712 
14:45	71.3	71.3	71.3	86	66.9	0	3	90	0.00	29.708 
14:50	72.1	72.1	72.1	86	67.7	0	3	90	0.00	29.708 
14:55	73.0	73.0	73.0	85	68.2	0	3	90	0.00	29.708 
15:00	73.7	73.7	73.7	82	67.9	0	2	90	0.00	29.706 
15:05	74.0	74.0	74.0	81	67.8	0	2	90	0.00	29.706 
15:10	74.6	74.6	74.6	81	68.4	0	3	90	0.00	29.706 
15:15	74.9	74.9	74.9	78	67.6	0	2	90	0.00	29.697 
15:20	74.9	74.9	74.9	77	67.2	1	3	68	0.00	29.697 
15:25	75.3	75.3	76.3	77	67.6	1	3	0	0.00	29.697 
15:30	75.8	75.8	77.0	77	68.1	0	2	225	0.00	29.697 
15:35	76.0	76.0	77.4	75	67.5	0	2	225	0.00	29.697 
15:40	76.1	76.1	77.5	74	67.2	0	3	248	0.00	29.697 
15:45	76.1	76.1	77.6	73	66.8	1	3	248	0.00	29.687 
15:50	76.7	76.7	78.3	75	68.2	0	4	248	0.00	29.687 
15:55	77.2	77.2	79.0	73	67.9	0	2	68	0.00	29.687 
16:00	77.7	77.7	79.7	74	68.7	0	3	68	0.00	29.677 
16:05	78.5	78.5	80.9	73	69.1	0	1	68	0.00	29.677 
16:10	78.6	78.6	80.8	70	68.0	0	3	45	0.00	29.677 
16:15	79.0	79.0	81.3	69	67.9	1	4	292	0.00	29.680 
16:20	79.4	79.4	82.0	70	68.7	0	2	292	0.00	29.680 
16:25	79.9	79.9	82.7	69	68.8	0	1	292	0.00	29.680 
16:30	80.1	80.1	82.7	67	68.1	0	3	292	0.00	29.677 
16:35	79.6	79.6	82.0	67	67.7	0	2	292	0.00	29.677 
16:40	78.6	78.6	80.7	68	67.1	0	2	292	0.00	29.677 
16:45	77.9	77.9	79.9	69	66.9	0	0	---	0.00	29.675 
16:50	77.6	77.6	79.5	71	67.4	0	1	292	0.00	29.675 
16:55	77.6	77.6	79.5	73	68.2	0	0	---	0.00	29.675 
17:00	77.9	77.9	80.0	74	68.9	0	1	315	0.00	29.664 
17:05	78.5	78.5	80.8	72	68.7	0	3	315	0.00	29.664 
17:10	79.2	79.2	81.6	69	68.1	0	4	292	0.00	29.664 
17:15	79.4	79.4	81.8	68	67.9	0	3	292	0.00	29.672 
17:20	79.0	79.0	81.3	68	67.5	0	2	292	0.00	29.672 
17:25	78.8	78.8	81.1	69	67.7	0	1	292	0.00	29.672 
17:30	78.6	78.6	80.8	70	68.0	0	0	---	0.00	29.668 
17:35	79.4	79.4	82.0	70	68.7	0	3	292	0.00	29.668 
17:40	79.9	79.9	82.6	68	68.4	1	3	292	0.00	29.668 
17:45	80.3	80.3	83.0	67	68.3	0	1	292	0.00	29.662 
17:50	80.3	80.3	83.0	67	68.3	0	2	292	0.00	29.662 
17:55	80.1	80.1	82.9	68	68.6	0	2	292	0.00	29.662 
18:00	79.9	79.9	82.6	68	68.4	0	3	315	0.00	29.656 
18:05	79.9	79.9	82.7	69	68.8	0	2	315	0.00	29.656 
18:10	79.9	79.9	82.6	68	68.4	0	2	315	0.00	29.656 
18:15	79.9	79.9	82.6	68	68.4	0	1	315	0.00	29.651 
18:20	79.9	79.9	82.7	69	68.8	0	1	315	0.00	29.651 
18:25	79.9	79.9	82.7	69	68.8	0	3	315	0.00	29.651 
18:30	80.1	80.1	83.0	69	69.0	0	1	315	0.00	29.648 
18:35	80.1	80.1	83.0	69	69.0	0	2	315	0.00	29.648 
18:40	80.1	80.1	83.1	70	69.4	0	1	315	0.00	29.648 
18:45	79.9	79.9	82.7	69	68.8	0	2	315	0.00	29.643 
18:50	80.1	80.1	83.2	71	69.8	0	2	315	0.00	29.643 
18:55	80.1	80.1	83.1	70	69.4	0	2	315	0.00	29.643 
19:00	80.3	80.3	83.3	69	69.2	0	3	315	0.00	29.636 
19:05	80.3	80.3	83.4	70	69.6	0	1	315	0.00	29.636 
19:10	80.3	80.3	83.4	70	69.6	0	1	315	0.00	29.636 
19:15	80.3	80.3	83.4	70	69.6	0	1	315	0.00	29.631 
19:20	80.1	80.1	83.1	70	69.4	0	1	315	0.00	29.631 
19:25	80.1	80.1	83.1	70	69.4	0	1	315	0.00	29.631 
19:30	80.1	80.1	83.1	70	69.4	0	2	315	0.00	29.624 
19:35	80.3	80.3	83.6	71	70.0	0	1	315	0.00	29.624 
19:40	80.1	80.1	83.2	71	69.8	0	1	315	0.00	29.624 
19:45	79.8	79.8	82.7	71	69.5	0	3	315	0.00	29.623 
19:50	79.6	79.6	82.5	72	69.8	0	1	315	0.00	29.623 
19:55	79.6	79.6	82.6	73	70.2	0	0	---	0.00	29.623 
20:00	79.4	79.4	82.3	73	70.0	0	0	---	0.00	29.624 
20:05	79.2	79.2	82.1	74	70.2	0	0	---	0.00	29.624 
20:10	79.0	79.0	81.7	74	70.0	0	0	---	0.00	29.624 
20:15	79.0	79.0	81.8	75	70.4	0	0	---	0.00	29.627 
20:20	79.0	79.0	81.8	75	70.4	0	0	---	0.00	29.627 
20:25	79.0	79.0	81.8	75	70.4	0	1	315	0.00	29.627 
20:30	78.8	78.8	81.5	76	70.6	0	1	315	0.00	29.619 
20:35	78.8	78.8	81.5	76	70.6	0	0	---	0.00	29.619 
20:40	78.6	78.6	81.2	76	70.4	0	0	---	0.00	29.619 
20:45	78.6	78.6	81.2	77	70.8	0	0	---	0.00	29.616 
20:50	78.5	78.5	81.1	77	70.7	0	0	---	0.00	29.616 
20:55	78.3	78.3	80.8	78	70.9	0	0	---	0.00	29.616 
21:00	78.3	78.3	80.8	78	70.9	0	0	---	0.00	29.598 
21:05	78.1	78.1	80.4	78	70.7	0	0	---	0.00	29.598 
21:10	78.1	78.1	80.4	78	70.7	0	0	---	0.00	29.598 
21:15	77.9	77.9	80.1	79	70.8	0	0	---	0.00	29.590 
21:20	77.9	77.9	80.1	79	70.8	0	0	---	0.00	29.590 
21:25	77.7	77.7	79.8	80	71.0	0	0	---	0.00	29.590 
21:30	77.6	77.6	79.6	81	71.3	0	0	---	0.00	29.588 
21:35	77.4	77.4	79.2	81	71.1	0	0	---	0.00	29.588 
21:40	77.2	77.2	78.9	81	70.9	0	1	315	0.00	29.588 
21:45	77.2	77.2	78.9	81	70.9	0	0	---	0.00	29.592 
21:50	77.0	77.0	78.5	82	71.1	0	0	---	0.00	29.592 
21:55	76.8	76.8	78.1	83	71.2	0	2	315	0.00	29.592 
22:00	76.8	76.8	78.1	83	71.2	0	1	315	0.00	29.602 
22:05	76.7	76.7	77.9	83	71.1	0	2	338	0.00	29.602 
22:10	76.3	76.3	77.2	83	70.7	0	2	22	0.00	29.602 
22:15	75.8	75.8	76.6	81	69.5	0	1	22	0.01	29.602 
22:20	74.7	74.7	74.7	82	68.8	0	2	22	0.02	29.602 
22:25	74.0	74.0	74.0	83	68.5	0	3	135	0.00	29.602 
22:30	73.5	73.5	73.5	84	68.4	0	1	135	0.00	29.587 
22:35	73.0	73.0	73.0	86	68.6	0	1	135	0.01	29.587 
22:40	72.5	72.5	72.5	87	68.4	0	1	135	0.01	29.587 
22:45	71.8	71.8	71.8	87	67.7	1	5	248	0.00	29.660 
22:50	70.9	70.9	70.9	87	66.8	1	4	292	0.00	29.660 
22:55	70.4	70.4	70.4	88	66.7	0	2	292	0.00	29.660 
23:00	70.1	70.1	70.1	88	66.4	0	1	292	0.01	29.630 
23:05	69.9	69.9	69.9	89	66.5	0	1	292	0.00	29.630 
23:10	69.8	69.8	69.8	90	66.7	0	3	292	0.04	29.630 
23:15	69.6	69.6	69.6	90	66.5	0	3	270	0.01	29.601 
23:20	69.6	69.6	69.6	91	66.8	0	1	270	0.01	29.601 
23:25	69.4	69.4	69.4	91	66.7	1	3	270	0.00	29.601 
23:30	69.4	69.4	69.4	91	66.7	2	5	292	0.00	29.601 
23:35	69.4	69.4	69.4	89	66.0	3	7	292	0.00	29.601 
23:40	69.6	69.6	69.6	88	65.9	2	4	292	0.00	29.601 
23:45	69.6	69.6	69.6	87	65.6	1	3	292	0.01	29.572 
23:50	69.4	69.4	69.4	87	65.4	1	3	292	0.00	29.572 
23:55	69.3	69.3	69.3	87	65.3	0	2	292	0.00	29.572 

CoCoRaHS
IN-AL-39
A2 Web Hosting
Creative Commons License
GoDaddy
search engine by freefind advanced

loaded 2018-11-16 00:07:28 • last modified 2010-11-18 10:43:29
Privacy PolicyDisclaimer
• wx.awcolley.com is powered by PmWiki v.2002016 •
• all content (unless otherwise noted) © 2018 A W Colley